Historyczne dane pomiarowe

Dodano dane terminowe – wersja testowa.

Dane z okresu 1951-2019

Wersja bazy: 1.34 [2019-03-16, lista zmian], aktualizacja planowana na 2019-04-15

Dane meteo z obszaru Polski uzyskane na podstawie danych udostępnionych przez Instytut Meteorologii i Gospodarki Wodnej – Państwowy Instytut Badawczy.

 

Wybierz Datę:    

       

TemperaturaWilgotnośćWiatrCiśnienieOpadyŚniegCzas trwania zjawisk
 Stacja t tx tn tng RH VA  wxwx mslp ppp RRR   cm mm wxwxwxwxwxwxwx
1997-09-11 10.9 15.8 8.3- 80.5- 4.7 4.3---- 0.0------------
1997-09-12 14.9 23.9 6.9- 68.0- 2.0 3.0---- 0.0------------
1997-09-13 18.0 24.6 12.1- 73.0- 5.0 1.3---- 8.3------------
1997-09-14 12.7 19.4 9.9- 83.3- 5.3 2.7---- 0.0------------
1997-09-15 10.3 17.1 5.4- 78.8- 3.0 2.0---- 0.0------------
1997-09-16 10.9 20.0 5.0- 82.5- 1.3 1.3---- 0.0------------
1997-09-17 12.9 21.7 7.0- 74.8- 0.3 2.0---- 0.0------------
1997-09-18 14.9 21.7 11.3- 76.3- 5.0 1.7---- 0.0------------
1997-09-19 13.4 21.5 10.0- 86.3- 7.3 3.3---- 7.3------------
1997-09-20 9.2 13.2 6.9- 76.3- 3.7 3.7---- 0.0------------
1997-09-21 7.5 14.3 3.1- 78.3- 1.3 2.3---- 0.0------------
1997-09-22 7.8 16.2 2.1- 83.5- 0.7 2.3---- 0.0------------
1997-09-23 11.2 18.9 4.4- 73.8- 1.7 3.0---- 0.3------------
1997-09-24 10.8 15.1 9.1- 77.5- 5.0 3.3---- 0.0------------
1997-09-25 10.7 13.5 7.1- 82.5- 8.0 3.7---- 0.0------------
1997-09-26 13.5 17.5 11.1- 79.5- 7.3 3.3---- 0.0------------
1997-09-27 11.1 14.2 9.6- 77.5- 6.7 3.7---- 0.0------------
1997-09-28 9.9 12.3 8.6- 79.3- 6.3 2.7---- 0.0------------
1997-09-29 8.7 15.4 4.2- 79.0- 4.0 2.3---- 0.4------------
1997-09-30 11.5 13.3 8.7- 90.3- 8.0 6.0---- 4.2------------
1997-10-01 10.2 13.4 9.0- 83.3- 5.0 3.7---- 10.1------------
1997-10-02 9.8 12.5 7.6- 84.8- 7.7 6.7---- 2.7------------
1997-10-03 8.9 11.7 7.5- 84.8- 7.0 4.7---- 0.6------------
1997-10-04 9.8 12.0 7.4- 78.0- 7.0 4.7---- 0.0------------
1997-10-05 13.8 17.9 10.7- 71.8- 6.7 5.3---- 0.0------------
1997-10-06 12.9 17.9 9.9- 88.3- 3.7 1.3---- 0.0------------
1997-10-07 15.0 22.4 8.7- 80.0- 2.7 1.0---- 0.0------------
1997-10-08 14.9 20.4 10.9- 88.8- 5.0 1.7---- 0.0------------
1997-10-09 17.6 22.0 12.8- 70.5- 7.7 4.0---- 3.8------------
1997-10-10 16.7 20.1 14.9- 80.0- 7.3 4.3---- 7.9------------
128.1 ms

 

Źródłem pochodzenia danych jest Instytut Meteorologii i Gospodarki Wodnej – Państwowy Instytut Badawczy. Dane Instytutu Meteorologii i Gospodarki Wodnej – Państwowego Instytutu Badawczego zostały przetworzone.

Dane źródłowe można odnaleźć na stronie https://dane.imgw.pl